createdAt,value
2022-11-07T00:02:50.903Z,94.62
2022-11-07T00:06:52.199Z,94.87
2022-11-07T00:10:54.326Z,95.28
2022-11-07T00:14:55.588Z,95.01
2022-11-07T00:18:56.882Z,95.14
2022-11-07T00:22:58.253Z,94.84
2022-11-07T00:27:00.422Z,94.83
2022-11-07T00:31:01.891Z,94.49
2022-11-07T00:35:03.522Z,94.67
2022-11-07T00:39:05.799Z,94.41
2022-11-07T00:43:07.644Z,94.46
2022-11-07T00:47:08.908Z,94.28
2022-11-07T00:51:12.060Z,94.33
2022-11-07T00:55:13.359Z,94.34
2022-11-07T00:59:14.706Z,94.62
2022-11-07T01:03:34.681Z,94.44
2022-11-07T01:07:36.774Z,93.88
2022-11-07T01:11:38.588Z,93.81
2022-11-07T01:15:40.495Z,93.92
2022-11-07T01:19:41.744Z,94.17
2022-11-07T01:23:43.171Z,94.48
2022-11-07T01:27:44.414Z,94.36
2022-11-07T01:31:46.603Z,94.63
2022-11-07T01:35:47.874Z,94.57
2022-11-07T01:39:49.135Z,94.35
2022-11-07T01:44:08.847Z,94.12
2022-11-07T01:48:10.123Z,94.33
2022-11-07T01:52:14.292Z,94.20
2022-11-07T01:56:17.205Z,94.01
2022-11-07T02:00:19.602Z,94.20
2022-11-07T02:04:23.633Z,94.41
2022-11-07T02:08:25.692Z,94.40
2022-11-07T02:12:27.270Z,94.59
2022-11-07T02:16:28.752Z,94.90
2022-11-07T02:20:30.040Z,94.84
2022-11-07T02:24:33.411Z,95.40
2022-11-07T02:28:36.548Z,95.37
2022-11-07T02:32:38.096Z,95.35
2022-11-07T02:36:39.427Z,95.44
2022-11-07T02:40:41.476Z,94.97
2022-11-07T02:44:42.809Z,94.83
2022-11-07T02:48:48.390Z,94.89
2022-11-07T02:52:49.708Z,94.89
2022-11-07T02:56:51.538Z,94.86
2022-11-07T03:00:53.232Z,94.59
2022-11-07T03:04:54.593Z,94.62
2022-11-07T03:08:56.460Z,94.40
2022-11-07T03:12:57.759Z,94.60
2022-11-07T03:16:59.078Z,94.57
2022-11-07T03:21:00.675Z,94.70
2022-11-07T03:25:02.070Z,94.75
2022-11-07T03:29:03.331Z,94.66
2022-11-07T03:33:04.731Z,95.02
2022-11-07T03:37:06.019Z,95.04
2022-11-07T03:41:07.534Z,95.16
2022-11-07T03:45:09.305Z,95.34
2022-11-07T03:49:10.689Z,95.27
2022-11-07T03:53:12.579Z,95.34
2022-11-07T03:57:14.319Z,95.47
2022-11-07T04:01:15.752Z,95.14
2022-11-07T04:05:17.342Z,95.29
2022-11-07T04:09:18.626Z,95.29
2022-11-07T04:13:38.571Z,95.55
2022-11-07T04:17:39.883Z,95.63
2022-11-07T04:21:41.513Z,95.78
2022-11-07T04:26:01.975Z,95.67
2022-11-07T04:30:19.617Z,95.50
2022-11-07T04:34:22.398Z,95.67
2022-11-07T04:38:24.141Z,95.94
2022-11-07T04:42:25.420Z,95.47
2022-11-07T04:46:26.851Z,95.70
2022-11-07T04:50:29.191Z,95.67
2022-11-07T04:54:30.552Z,95.61
2022-11-07T04:58:31.959Z,95.26
2022-11-07T05:02:33.368Z,95.24
2022-11-07T05:06:35.848Z,95.22
2022-11-07T05:10:37.211Z,95.21
2022-11-07T05:14:38.751Z,95.08
2022-11-07T05:18:40.366Z,95.13
2022-11-07T05:23:01.354Z,94.80
2022-11-07T05:27:02.767Z,94.49
2022-11-07T05:31:04.906Z,94.68
2022-11-07T05:35:06.296Z,94.51
2022-11-07T05:39:07.630Z,95.06
2022-11-07T05:43:10.192Z,95.02
2022-11-07T05:47:11.427Z,94.80
2022-11-07T05:51:12.725Z,95.45
2022-11-07T05:55:14.197Z,96.06
2022-11-07T05:59:15.553Z,96.55
2022-11-07T06:03:20.190Z,96.42
2022-11-07T06:07:21.989Z,96.02
2022-11-07T06:11:23.559Z,95.84
2022-11-07T06:15:25.693Z,95.70
2022-11-07T06:19:26.975Z,95.89
2022-11-07T06:23:28.300Z,96.01
2022-11-07T06:27:30.685Z,95.74
2022-11-07T06:31:32.657Z,95.13
2022-11-07T06:35:35.397Z,95.47
2022-11-07T06:39:36.726Z,95.25
2022-11-07T06:43:38.606Z,95.58
2022-11-07T06:47:40.452Z,95.56
2022-11-07T06:51:46.883Z,95.49
2022-11-07T06:55:51.227Z,95.07
2022-11-07T06:59:52.558Z,95.27
2022-11-07T07:03:53.883Z,95.17
2022-11-07T07:07:57.105Z,94.86
2022-11-07T07:11:59.089Z,94.69
2022-11-07T07:16:02.427Z,94.85
2022-11-07T07:20:05.916Z,94.77
2022-11-07T07:24:07.585Z,95.00
2022-11-07T07:28:10.077Z,94.86
2022-11-07T07:32:11.440Z,94.26
2022-11-07T07:36:17.812Z,94.16
2022-11-07T07:40:22.109Z,94.09
2022-11-07T07:44:23.911Z,93.73
2022-11-07T07:48:25.341Z,93.92
2022-11-07T07:52:26.794Z,93.49
2022-11-07T07:56:28.309Z,93.77
2022-11-07T08:00:29.648Z,93.39
2022-11-07T08:04:31.287Z,92.81
2022-11-07T08:08:37.959Z,92.03
2022-11-07T08:12:44.006Z,91.59
2022-11-07T08:16:45.464Z,91.42
2022-11-07T08:20:46.988Z,91.21
2022-11-07T08:24:48.269Z,90.59
2022-11-07T08:28:50.149Z,90.20
2022-11-07T08:32:51.533Z,89.91
2022-11-07T08:36:52.902Z,89.63
2022-11-07T08:40:54.324Z,89.45
2022-11-07T08:44:55.599Z,89.14
2022-11-07T08:48:58.108Z,88.85
2022-11-07T09:07:44.028Z,88.05
2022-11-07T09:16:59.709Z,85.19
2022-11-07T09:21:01.699Z,84.56
2022-11-07T09:25:04.463Z,82.92
2022-11-07T09:29:06.107Z,81.67
2022-11-07T09:33:08.620Z,81.07
2022-11-07T09:37:14.397Z,81.46
2022-11-07T09:41:16.766Z,80.99
2022-11-07T14:34:23.005Z,87.09
2022-11-07T14:43:29.546Z,89.77
2022-11-07T14:52:21.314Z,90.51
2022-11-07T14:57:24.803Z,91.16
2022-11-07T15:32:37.287Z,93.53
2022-11-07T15:37:29.160Z,93.48
2022-11-07T16:02:54.026Z,94.23
2022-11-07T17:49:08.256Z,94.97
2022-11-07T17:53:12.879Z,94.46
2022-11-07T17:57:17.487Z,94.59
2022-11-07T18:01:23.750Z,95.51
2022-11-07T18:05:31.851Z,96.39
2022-11-07T18:09:34.802Z,96.59
2022-11-07T18:13:37.519Z,96.48
2022-11-07T18:17:40.371Z,96.73
2022-11-07T18:21:44.323Z,96.17
2022-11-07T18:26:01.027Z,96.40
2022-11-07T18:30:04.692Z,96.29
2022-11-07T18:34:13.854Z,95.19
2022-11-07T18:42:38.193Z,94.09
2022-11-07T18:46:41.109Z,93.39
2022-11-07T18:50:47.932Z,92.81
2022-11-07T18:54:51.086Z,93.04
2022-11-07T18:58:58.545Z,93.12
2022-11-07T19:03:02.617Z,93.07
2022-11-07T19:07:12.430Z,92.98
2022-11-07T19:11:17.488Z,93.26
2022-11-07T19:15:24.868Z,93.43
2022-11-07T19:19:27.315Z,94.28
2022-11-07T19:23:29.889Z,94.27
2022-11-07T19:27:37.269Z,94.40
2022-11-07T19:31:39.729Z,93.92
2022-11-07T19:35:43.235Z,94.39
2022-11-07T19:39:45.277Z,94.31
2022-11-07T19:43:51.518Z,94.68
2022-11-07T19:47:56.335Z,94.40
2022-11-07T19:51:59.320Z,94.89
2022-11-07T19:56:08.889Z,94.38
2022-11-07T20:00:11.419Z,94.58
2022-11-07T20:04:14.863Z,94.71
2022-11-07T20:08:16.356Z,94.83
2022-11-07T20:12:18.190Z,95.47
2022-11-07T20:16:20.412Z,95.35
2022-11-07T20:20:22.566Z,95.95
2022-11-07T20:24:25.504Z,96.11
2022-11-07T20:28:26.865Z,96.35
2022-11-07T21:27:58.535Z,96.54
2022-11-07T21:32:01.531Z,96.04
2022-11-07T21:36:07.508Z,96.57
2022-11-07T21:40:10.405Z,96.63
2022-11-07T21:44:12.930Z,96.43
2022-11-07T21:48:16.474Z,96.83
2022-11-07T21:52:18.368Z,97.73
2022-11-07T21:56:24.830Z,98.03
2022-11-07T22:00:26.427Z,97.72
2022-11-07T22:04:27.832Z,97.50
2022-11-07T22:08:29.198Z,97.75
2022-11-07T22:12:30.657Z,97.49
2022-11-07T22:16:32.588Z,97.88
2022-11-07T22:20:34.251Z,98.85
2022-11-07T22:24:35.589Z,99.24
2022-11-07T22:28:40.368Z,98.92
2022-11-07T22:32:44.877Z,98.61
2022-11-07T22:36:46.339Z,98.57
2022-11-07T22:40:47.669Z,98.30
2022-11-07T22:44:48.976Z,99.09
2022-11-07T22:48:51.685Z,98.99
2022-11-07T22:52:53.030Z,98.95
2022-11-07T22:56:54.473Z,99.25
2022-11-07T23:00:55.787Z,100.00
2022-11-07T23:04:57.248Z,100.00
2022-11-07T23:08:58.851Z,99.91
2022-11-07T23:13:00.277Z,100.00
2022-11-07T23:17:01.534Z,100.00
2022-11-07T23:21:11.947Z,100.00
2022-11-07T23:25:13.224Z,100.00
2022-11-07T23:29:15.889Z,100.00
2022-11-07T23:33:17.186Z,100.00
2022-11-07T23:37:18.751Z,100.00
2022-11-07T23:41:20.031Z,99.84
2022-11-07T23:45:39.995Z,99.48
2022-11-07T23:50:00.109Z,99.29
2022-11-07T23:54:21.017Z,98.89
2022-11-07T23:58:40.831Z,98.84
